sensor_id;sensor_type;location;lat;lon;timestamp;P1;durP1;ratioP1;P2;durP2;ratioP2
3901;SDS011;1966;49.908;9.156;2022-12-18T00:03:02;19.63;;;12.27;;
3901;SDS011;1966;49.908;9.156;2022-12-18T00:08:01;28.17;;;12.20;;
3901;SDS011;1966;49.908;9.156;2022-12-18T00:13:01;25.10;;;12.00;;
3901;SDS011;1966;49.908;9.156;2022-12-18T00:18:01;21.90;;;11.20;;
3901;SDS011;1966;49.908;9.156;2022-12-18T00:23:01;23.83;;;12.17;;
3901;SDS011;1966;49.908;9.156;2022-12-18T00:28:00;22.37;;;11.53;;
3901;SDS011;1966;49.908;9.156;2022-12-18T00:32:59;22.30;;;11.17;;
3901;SDS011;1966;49.908;9.156;2022-12-18T00:38:00;26.67;;;11.43;;
3901;SDS011;1966;49.908;9.156;2022-12-18T00:42:59;17.53;;;10.30;;
3901;SDS011;1966;49.908;9.156;2022-12-18T00:48:00;26.37;;;12.30;;
3901;SDS011;1966;49.908;9.156;2022-12-18T00:53:00;23.27;;;13.20;;
3901;SDS011;1966;49.908;9.156;2022-12-18T00:58:00;21.50;;;12.20;;
3901;SDS011;1966;49.908;9.156;2022-12-18T01:02:59;20.33;;;11.07;;
3901;SDS011;1966;49.908;9.156;2022-12-18T01:07:58;22.87;;;11.80;;
3901;SDS011;1966;49.908;9.156;2022-12-18T01:12:59;29.50;;;12.50;;
3901;SDS011;1966;49.908;9.156;2022-12-18T01:17:58;24.47;;;11.73;;
3901;SDS011;1966;49.908;9.156;2022-12-18T01:22:58;23.13;;;12.00;;
3901;SDS011;1966;49.908;9.156;2022-12-18T01:27:57;20.57;;;11.70;;
3901;SDS011;1966;49.908;9.156;2022-12-18T01:32:58;22.00;;;11.70;;
3901;SDS011;1966;49.908;9.156;2022-12-18T01:37:57;24.27;;;10.50;;
3901;SDS011;1966;49.908;9.156;2022-12-18T01:42:57;18.77;;;10.10;;
3901;SDS011;1966;49.908;9.156;2022-12-18T01:47:57;22.80;;;10.43;;
3901;SDS011;1966;49.908;9.156;2022-12-18T01:52:59;20.63;;;11.17;;
3901;SDS011;1966;49.908;9.156;2022-12-18T01:57:59;20.03;;;9.87;;
3901;SDS011;1966;49.908;9.156;2022-12-18T02:03:00;19.73;;;10.57;;
3901;SDS011;1966;49.908;9.156;2022-12-18T02:08:01;17.17;;;9.77;;
3901;SDS011;1966;49.908;9.156;2022-12-18T02:13:02;19.87;;;11.07;;
3901;SDS011;1966;49.908;9.156;2022-12-18T02:18:06;15.80;;;9.07;;
3901;SDS011;1966;49.908;9.156;2022-12-18T02:23:10;21.63;;;11.03;;
3901;SDS011;1966;49.908;9.156;2022-12-18T02:28:13;24.83;;;12.20;;
3901;SDS011;1966;49.908;9.156;2022-12-18T02:33:13;28.60;;;12.30;;
3901;SDS011;1966;49.908;9.156;2022-12-18T02:38:13;21.60;;;10.50;;
3901;SDS011;1966;49.908;9.156;2022-12-18T02:43:15;21.10;;;10.70;;
3901;SDS011;1966;49.908;9.156;2022-12-18T02:48:15;22.87;;;10.80;;
3901;SDS011;1966;49.908;9.156;2022-12-18T02:53:15;22.20;;;10.90;;
3901;SDS011;1966;49.908;9.156;2022-12-18T02:58:19;18.73;;;10.13;;
3901;SDS011;1966;49.908;9.156;2022-12-18T03:03:20;29.70;;;11.20;;
3901;SDS011;1966;49.908;9.156;2022-12-18T03:08:23;13.53;;;9.47;;
3901;SDS011;1966;49.908;9.156;2022-12-18T03:13:25;17.37;;;9.37;;
3901;SDS011;1966;49.908;9.156;2022-12-18T03:18:25;16.40;;;10.10;;
3901;SDS011;1966;49.908;9.156;2022-12-18T03:23:27;17.33;;;9.57;;
3901;SDS011;1966;49.908;9.156;2022-12-18T03:28:29;20.23;;;10.40;;
3901;SDS011;1966;49.908;9.156;2022-12-18T03:33:29;17.77;;;9.63;;
3901;SDS011;1966;49.908;9.156;2022-12-18T03:38:30;20.70;;;11.10;;
3901;SDS011;1966;49.908;9.156;2022-12-18T03:43:34;17.37;;;9.67;;
3901;SDS011;1966;49.908;9.156;2022-12-18T03:48:36;17.60;;;9.10;;
3901;SDS011;1966;49.908;9.156;2022-12-18T03:53:38;13.73;;;8.60;;
3901;SDS011;1966;49.908;9.156;2022-12-18T03:58:41;14.63;;;9.03;;
3901;SDS011;1966;49.908;9.156;2022-12-18T04:03:42;19.67;;;10.90;;
3901;SDS011;1966;49.908;9.156;2022-12-18T04:08:42;17.10;;;9.17;;
3901;SDS011;1966;49.908;9.156;2022-12-18T04:13:43;20.50;;;9.73;;
3901;SDS011;1966;49.908;9.156;2022-12-18T04:18:43;16.93;;;9.70;;
3901;SDS011;1966;49.908;9.156;2022-12-18T04:23:42;17.90;;;9.77;;
3901;SDS011;1966;49.908;9.156;2022-12-18T04:28:41;19.80;;;9.60;;
3901;SDS011;1966;49.908;9.156;2022-12-18T04:33:42;19.27;;;9.47;;
3901;SDS011;1966;49.908;9.156;2022-12-18T04:38:41;14.87;;;7.80;;
3901;SDS011;1966;49.908;9.156;2022-12-18T04:43:41;16.33;;;8.27;;
3901;SDS011;1966;49.908;9.156;2022-12-18T04:48:40;17.17;;;8.50;;
3901;SDS011;1966;49.908;9.156;2022-12-18T04:53:41;19.87;;;9.50;;
3901;SDS011;1966;49.908;9.156;2022-12-18T04:58:41;19.40;;;9.17;;
3901;SDS011;1966;49.908;9.156;2022-12-18T05:03:40;15.57;;;9.00;;
3901;SDS011;1966;49.908;9.156;2022-12-18T05:08:41;17.93;;;8.97;;
3901;SDS011;1966;49.908;9.156;2022-12-18T05:13:40;13.97;;;8.27;;
3901;SDS011;1966;49.908;9.156;2022-12-18T05:18:40;19.87;;;10.43;;
3901;SDS011;1966;49.908;9.156;2022-12-18T05:23:41;14.30;;;7.97;;
3901;SDS011;1966;49.908;9.156;2022-12-18T05:28:40;14.80;;;8.70;;
3901;SDS011;1966;49.908;9.156;2022-12-18T05:33:39;17.73;;;9.23;;
3901;SDS011;1966;49.908;9.156;2022-12-18T05:38:38;18.90;;;9.23;;
3901;SDS011;1966;49.908;9.156;2022-12-18T05:43:40;20.53;;;9.93;;
3901;SDS011;1966;49.908;9.156;2022-12-18T05:48:40;22.43;;;11.67;;
3901;SDS011;1966;49.908;9.156;2022-12-18T05:53:39;18.47;;;9.50;;
3901;SDS011;1966;49.908;9.156;2022-12-18T05:58:40;16.87;;;8.37;;
3901;SDS011;1966;49.908;9.156;2022-12-18T06:03:39;13.73;;;8.43;;
3901;SDS011;1966;49.908;9.156;2022-12-18T06:08:39;19.67;;;10.23;;
3901;SDS011;1966;49.908;9.156;2022-12-18T06:13:39;17.77;;;9.67;;
3901;SDS011;1966;49.908;9.156;2022-12-18T06:18:39;17.90;;;10.27;;
3901;SDS011;1966;49.908;9.156;2022-12-18T06:23:38;16.20;;;10.17;;
3901;SDS011;1966;49.908;9.156;2022-12-18T06:28:37;24.60;;;10.07;;
3901;SDS011;1966;49.908;9.156;2022-12-18T06:33:38;15.10;;;9.20;;
3901;SDS011;1966;49.908;9.156;2022-12-18T06:38:38;23.83;;;9.43;;
3901;SDS011;1966;49.908;9.156;2022-12-18T06:43:38;17.47;;;9.33;;
3901;SDS011;1966;49.908;9.156;2022-12-18T06:48:39;18.07;;;9.30;;
3901;SDS011;1966;49.908;9.156;2022-12-18T06:53:38;23.57;;;10.10;;
3901;SDS011;1966;49.908;9.156;2022-12-18T06:58:37;18.33;;;9.27;;
3901;SDS011;1966;49.908;9.156;2022-12-18T07:03:39;19.83;;;10.40;;
3901;SDS011;1966;49.908;9.156;2022-12-18T07:08:38;15.53;;;9.23;;
3901;SDS011;1966;49.908;9.156;2022-12-18T07:13:38;15.80;;;9.57;;
3901;SDS011;1966;49.908;9.156;2022-12-18T07:18:38;17.60;;;9.23;;
3901;SDS011;1966;49.908;9.156;2022-12-18T07:23:38;18.40;;;11.40;;
3901;SDS011;1966;49.908;9.156;2022-12-18T07:28:38;19.87;;;10.80;;
3901;SDS011;1966;49.908;9.156;2022-12-18T07:33:39;27.70;;;13.73;;
3901;SDS011;1966;49.908;9.156;2022-12-18T07:38:38;27.00;;;14.23;;
3901;SDS011;1966;49.908;9.156;2022-12-18T07:43:38;31.83;;;15.03;;
3901;SDS011;1966;49.908;9.156;2022-12-18T07:48:39;25.87;;;13.00;;
3901;SDS011;1966;49.908;9.156;2022-12-18T07:53:38;22.00;;;11.70;;
3901;SDS011;1966;49.908;9.156;2022-12-18T07:58:37;29.43;;;13.83;;
3901;SDS011;1966;49.908;9.156;2022-12-18T08:03:37;25.77;;;14.13;;
3901;SDS011;1966;49.908;9.156;2022-12-18T08:08:38;29.10;;;14.23;;
3901;SDS011;1966;49.908;9.156;2022-12-18T08:13:38;29.57;;;14.83;;
3901;SDS011;1966;49.908;9.156;2022-12-18T08:18:37;31.17;;;15.03;;
3901;SDS011;1966;49.908;9.156;2022-12-18T08:23:38;32.90;;;15.27;;
3901;SDS011;1966;49.908;9.156;2022-12-18T08:28:38;44.87;;;18.23;;
3901;SDS011;1966;49.908;9.156;2022-12-18T08:33:37;37.20;;;16.10;;
3901;SDS011;1966;49.908;9.156;2022-12-18T08:38:38;33.80;;;15.90;;
3901;SDS011;1966;49.908;9.156;2022-12-18T08:43:38;38.30;;;16.53;;
3901;SDS011;1966;49.908;9.156;2022-12-18T08:48:54;33.13;;;15.93;;
3901;SDS011;1966;49.908;9.156;2022-12-18T08:53:55;50.53;;;22.00;;
3901;SDS011;1966;49.908;9.156;2022-12-18T08:58:55;56.00;;;24.87;;
3901;SDS011;1966;49.908;9.156;2022-12-18T09:03:54;36.60;;;15.77;;
3901;SDS011;1966;49.908;9.156;2022-12-18T09:08:56;32.47;;;16.87;;
3901;SDS011;1966;49.908;9.156;2022-12-18T09:13:56;31.90;;;15.53;;
3901;SDS011;1966;49.908;9.156;2022-12-18T09:18:55;26.27;;;13.47;;
3901;SDS011;1966;49.908;9.156;2022-12-18T09:23:58;35.03;;;17.27;;
3901;SDS011;1966;49.908;9.156;2022-12-18T09:28:58;41.17;;;17.80;;
3901;SDS011;1966;49.908;9.156;2022-12-18T09:33:57;41.20;;;16.27;;
3901;SDS011;1966;49.908;9.156;2022-12-18T09:38:56;32.13;;;15.47;;
3901;SDS011;1966;49.908;9.156;2022-12-18T09:43:58;30.73;;;13.23;;
3901;SDS011;1966;49.908;9.156;2022-12-18T09:49:00;33.13;;;14.60;;
3901;SDS011;1966;49.908;9.156;2022-12-18T09:54:01;34.03;;;15.50;;
3901;SDS011;1966;49.908;9.156;2022-12-18T09:59:04;34.77;;;16.37;;
3901;SDS011;1966;49.908;9.156;2022-12-18T10:04:04;30.67;;;15.07;;
3901;SDS011;1966;49.908;9.156;2022-12-18T10:09:05;36.13;;;15.73;;
3901;SDS011;1966;49.908;9.156;2022-12-18T10:14:11;30.53;;;14.67;;
3901;SDS011;1966;49.908;9.156;2022-12-18T10:19:17;30.40;;;14.17;;
3901;SDS011;1966;49.908;9.156;2022-12-18T10:24:41;29.73;;;14.00;;
3901;SDS011;1966;49.908;9.156;2022-12-18T10:30:07;35.33;;;15.23;;
3901;SDS011;1966;49.908;9.156;2022-12-18T10:35:31;26.20;;;13.17;;
3901;SDS011;1966;49.908;9.156;2022-12-18T10:40:52;33.10;;;15.70;;
3901;SDS011;1966;49.908;9.156;2022-12-18T10:46:14;38.50;;;17.30;;
3901;SDS011;1966;49.908;9.156;2022-12-18T10:51:35;36.60;;;16.23;;
3901;SDS011;1966;49.908;9.156;2022-12-18T10:57:09;36.10;;;16.73;;
3901;SDS011;1966;49.908;9.156;2022-12-18T11:02:35;31.97;;;16.57;;
3901;SDS011;1966;49.908;9.156;2022-12-18T11:07:55;35.30;;;15.90;;
3901;SDS011;1966;49.908;9.156;2022-12-18T11:13:17;31.97;;;16.17;;
3901;SDS011;1966;49.908;9.156;2022-12-18T11:18:38;35.13;;;16.40;;
3901;SDS011;1966;49.908;9.156;2022-12-18T11:23:58;33.23;;;15.70;;
3901;SDS011;1966;49.908;9.156;2022-12-18T11:29:19;37.93;;;16.27;;
3901;SDS011;1966;49.908;9.156;2022-12-18T11:34:44;32.23;;;14.97;;
3901;SDS011;1966;49.908;9.156;2022-12-18T11:40:06;35.40;;;14.90;;
3901;SDS011;1966;49.908;9.156;2022-12-18T11:45:30;33.20;;;17.00;;
3901;SDS011;1966;49.908;9.156;2022-12-18T11:50:52;34.77;;;17.23;;
3901;SDS011;1966;49.908;9.156;2022-12-18T11:56:18;32.83;;;15.97;;
3901;SDS011;1966;49.908;9.156;2022-12-18T12:01:46;30.60;;;15.43;;
3901;SDS011;1966;49.908;9.156;2022-12-18T12:07:13;30.37;;;15.57;;
3901;SDS011;1966;49.908;9.156;2022-12-18T12:12:38;32.47;;;14.80;;
3901;SDS011;1966;49.908;9.156;2022-12-18T12:18:08;31.70;;;15.77;;
3901;SDS011;1966;49.908;9.156;2022-12-18T12:23:36;34.83;;;15.27;;
3901;SDS011;1966;49.908;9.156;2022-12-18T12:29:00;33.07;;;15.97;;
3901;SDS011;1966;49.908;9.156;2022-12-18T12:34:21;39.77;;;17.43;;
3901;SDS011;1966;49.908;9.156;2022-12-18T12:39:44;28.67;;;13.80;;
3901;SDS011;1966;49.908;9.156;2022-12-18T12:45:05;30.17;;;14.00;;
3901;SDS011;1966;49.908;9.156;2022-12-18T12:50:25;28.03;;;14.27;;
3901;SDS011;1966;49.908;9.156;2022-12-18T12:55:46;39.37;;;16.47;;
3901;SDS011;1966;49.908;9.156;2022-12-18T13:01:11;39.27;;;16.73;;
3901;SDS011;1966;49.908;9.156;2022-12-18T13:06:37;32.63;;;15.60;;
3901;SDS011;1966;49.908;9.156;2022-12-18T13:12:02;27.00;;;13.77;;
3901;SDS011;1966;49.908;9.156;2022-12-18T13:17:40;35.60;;;14.87;;
3901;SDS011;1966;49.908;9.156;2022-12-18T13:22:59;33.73;;;15.10;;
3901;SDS011;1966;49.908;9.156;2022-12-18T13:28:21;31.33;;;14.10;;
3901;SDS011;1966;49.908;9.156;2022-12-18T13:33:43;30.17;;;14.50;;
3901;SDS011;1966;49.908;9.156;2022-12-18T13:39:10;29.23;;;13.27;;
3901;SDS011;1966;49.908;9.156;2022-12-18T13:44:32;32.60;;;15.43;;
3901;SDS011;1966;49.908;9.156;2022-12-18T13:49:52;30.53;;;14.13;;
3901;SDS011;1966;49.908;9.156;2022-12-18T13:55:14;30.43;;;14.93;;
3901;SDS011;1966;49.908;9.156;2022-12-18T14:00:40;31.00;;;14.83;;
3901;SDS011;1966;49.908;9.156;2022-12-18T14:06:01;32.10;;;14.27;;
3901;SDS011;1966;49.908;9.156;2022-12-18T14:11:21;30.83;;;12.63;;
3901;SDS011;1966;49.908;9.156;2022-12-18T14:16:43;28.10;;;13.00;;
3901;SDS011;1966;49.908;9.156;2022-12-18T14:22:03;26.83;;;13.20;;
3901;SDS011;1966;49.908;9.156;2022-12-18T14:27:23;30.17;;;14.27;;
3901;SDS011;1966;49.908;9.156;2022-12-18T14:32:44;29.27;;;13.00;;
3901;SDS011;1966;49.908;9.156;2022-12-18T14:38:22;30.57;;;14.23;;
3901;SDS011;1966;49.908;9.156;2022-12-18T14:43:43;34.03;;;13.47;;
3901;SDS011;1966;49.908;9.156;2022-12-18T14:49:04;32.00;;;12.87;;
3901;SDS011;1966;49.908;9.156;2022-12-18T14:54:25;24.90;;;11.70;;
3901;SDS011;1966;49.908;9.156;2022-12-18T14:59:45;33.57;;;15.30;;
3901;SDS011;1966;49.908;9.156;2022-12-18T15:05:16;25.57;;;11.67;;
3901;SDS011;1966;49.908;9.156;2022-12-18T15:10:45;25.77;;;12.53;;
3901;SDS011;1966;49.908;9.156;2022-12-18T15:16:06;27.17;;;12.70;;
3901;SDS011;1966;49.908;9.156;2022-12-18T15:21:32;25.93;;;12.40;;
3901;SDS011;1966;49.908;9.156;2022-12-18T15:26:52;22.90;;;11.80;;
3901;SDS011;1966;49.908;9.156;2022-12-18T15:32:15;30.07;;;13.03;;
3901;SDS011;1966;49.908;9.156;2022-12-18T15:37:39;31.33;;;11.77;;
3901;SDS011;1966;49.908;9.156;2022-12-18T15:42:58;24.13;;;11.47;;
3901;SDS011;1966;49.908;9.156;2022-12-18T15:48:37;31.50;;;13.80;;
3901;SDS011;1966;49.908;9.156;2022-12-18T15:53:59;28.17;;;13.00;;
3901;SDS011;1966;49.908;9.156;2022-12-18T15:59:20;26.40;;;11.63;;
3901;SDS011;1966;49.908;9.156;2022-12-18T16:04:40;23.33;;;10.93;;
3901;SDS011;1966;49.908;9.156;2022-12-18T16:10:01;25.20;;;12.17;;
3901;SDS011;1966;49.908;9.156;2022-12-18T16:15:20;24.77;;;12.97;;
3901;SDS011;1966;49.908;9.156;2022-12-18T16:20:40;29.10;;;13.30;;
3901;SDS011;1966;49.908;9.156;2022-12-18T16:26:01;24.33;;;12.50;;
3901;SDS011;1966;49.908;9.156;2022-12-18T16:31:22;25.73;;;11.40;;
3901;SDS011;1966;49.908;9.156;2022-12-18T16:36:42;23.93;;;12.07;;
3901;SDS011;1966;49.908;9.156;2022-12-18T16:42:04;30.47;;;12.87;;
3901;SDS011;1966;49.908;9.156;2022-12-18T16:47:24;35.70;;;15.67;;
3901;SDS011;1966;49.908;9.156;2022-12-18T16:52:44;32.30;;;14.27;;
3901;SDS011;1966;49.908;9.156;2022-12-18T16:58:05;28.20;;;12.70;;
3901;SDS011;1966;49.908;9.156;2022-12-18T17:03:24;27.53;;;13.27;;
3901;SDS011;1966;49.908;9.156;2022-12-18T17:08:44;28.17;;;12.70;;
3901;SDS011;1966;49.908;9.156;2022-12-18T17:14:09;34.00;;;13.63;;
3901;SDS011;1966;49.908;9.156;2022-12-18T17:19:29;31.00;;;13.40;;
3901;SDS011;1966;49.908;9.156;2022-12-18T17:24:49;25.77;;;12.77;;
3901;SDS011;1966;49.908;9.156;2022-12-18T17:30:10;27.23;;;12.57;;
3901;SDS011;1966;49.908;9.156;2022-12-18T17:35:30;26.97;;;11.60;;
3901;SDS011;1966;49.908;9.156;2022-12-18T17:40:50;28.33;;;12.57;;
3901;SDS011;1966;49.908;9.156;2022-12-18T17:46:11;28.13;;;12.80;;
3901;SDS011;1966;49.908;9.156;2022-12-18T17:51:31;25.43;;;11.77;;
3901;SDS011;1966;49.908;9.156;2022-12-18T17:56:51;36.13;;;15.00;;
3901;SDS011;1966;49.908;9.156;2022-12-18T18:02:12;30.17;;;13.93;;
3901;SDS011;1966;49.908;9.156;2022-12-18T18:07:31;31.10;;;14.20;;
3901;SDS011;1966;49.908;9.156;2022-12-18T18:12:51;33.13;;;13.40;;
3901;SDS011;1966;49.908;9.156;2022-12-18T18:18:30;24.13;;;12.90;;
3901;SDS011;1966;49.908;9.156;2022-12-18T18:23:49;24.30;;;12.80;;
3901;SDS011;1966;49.908;9.156;2022-12-18T18:29:10;31.40;;;14.03;;
3901;SDS011;1966;49.908;9.156;2022-12-18T18:34:32;28.43;;;14.10;;
3901;SDS011;1966;49.908;9.156;2022-12-18T18:39:52;27.50;;;13.07;;
3901;SDS011;1966;49.908;9.156;2022-12-18T18:45:14;32.30;;;13.73;;
3901;SDS011;1966;49.908;9.156;2022-12-18T18:50:35;30.73;;;13.43;;
3901;SDS011;1966;49.908;9.156;2022-12-18T18:55:56;30.37;;;14.50;;
3901;SDS011;1966;49.908;9.156;2022-12-18T19:01:16;28.20;;;13.37;;
3901;SDS011;1966;49.908;9.156;2022-12-18T19:06:37;26.97;;;12.90;;
3901;SDS011;1966;49.908;9.156;2022-12-18T19:11:57;28.13;;;13.10;;
3901;SDS011;1966;49.908;9.156;2022-12-18T19:17:34;32.50;;;15.00;;
3901;SDS011;1966;49.908;9.156;2022-12-18T19:22:56;26.40;;;12.80;;
3901;SDS011;1966;49.908;9.156;2022-12-18T19:28:15;33.80;;;14.67;;
3901;SDS011;1966;49.908;9.156;2022-12-18T19:33:36;32.00;;;14.13;;
3901;SDS011;1966;49.908;9.156;2022-12-18T19:38:58;29.47;;;13.83;;
3901;SDS011;1966;49.908;9.156;2022-12-18T19:44:18;27.13;;;12.77;;
3901;SDS011;1966;49.908;9.156;2022-12-18T19:49:37;30.33;;;13.67;;
3901;SDS011;1966;49.908;9.156;2022-12-18T19:54:58;27.70;;;14.10;;
3901;SDS011;1966;49.908;9.156;2022-12-18T20:00:18;31.03;;;13.80;;
3901;SDS011;1966;49.908;9.156;2022-12-18T20:05:37;32.80;;;14.20;;
3901;SDS011;1966;49.908;9.156;2022-12-18T20:10:58;29.90;;;13.03;;
3901;SDS011;1966;49.908;9.156;2022-12-18T20:16:18;29.10;;;14.20;;
3901;SDS011;1966;49.908;9.156;2022-12-18T20:21:37;28.97;;;13.37;;
3901;SDS011;1966;49.908;9.156;2022-12-18T20:26:58;27.53;;;13.57;;
3901;SDS011;1966;49.908;9.156;2022-12-18T20:32:18;28.03;;;13.90;;
3901;SDS011;1966;49.908;9.156;2022-12-18T20:37:38;29.17;;;13.20;;
3901;SDS011;1966;49.908;9.156;2022-12-18T20:42:59;29.33;;;14.00;;
3901;SDS011;1966;49.908;9.156;2022-12-18T20:48:19;29.80;;;13.20;;
3901;SDS011;1966;49.908;9.156;2022-12-18T20:53:38;33.70;;;14.97;;
3901;SDS011;1966;49.908;9.156;2022-12-18T20:58:59;38.47;;;16.00;;
3901;SDS011;1966;49.908;9.156;2022-12-18T21:04:19;35.50;;;14.50;;
3901;SDS011;1966;49.908;9.156;2022-12-18T21:09:39;27.10;;;12.50;;
3901;SDS011;1966;49.908;9.156;2022-12-18T21:15:00;28.83;;;13.20;;
3901;SDS011;1966;49.908;9.156;2022-12-18T21:20:20;26.83;;;13.43;;
3901;SDS011;1966;49.908;9.156;2022-12-18T21:25:40;27.80;;;12.93;;
3901;SDS011;1966;49.908;9.156;2022-12-18T21:31:01;34.47;;;15.27;;
3901;SDS011;1966;49.908;9.156;2022-12-18T21:36:21;35.67;;;13.90;;
3901;SDS011;1966;49.908;9.156;2022-12-18T21:41:40;28.40;;;14.00;;
3901;SDS011;1966;49.908;9.156;2022-12-18T21:47:19;34.57;;;15.47;;
3901;SDS011;1966;49.908;9.156;2022-12-18T21:52:39;26.67;;;13.27;;
3901;SDS011;1966;49.908;9.156;2022-12-18T21:57:58;31.53;;;15.37;;
3901;SDS011;1966;49.908;9.156;2022-12-18T22:03:19;34.43;;;15.20;;
3901;SDS011;1966;49.908;9.156;2022-12-18T22:08:39;29.90;;;15.50;;
3901;SDS011;1966;49.908;9.156;2022-12-18T22:13:59;29.43;;;13.97;;
3901;SDS011;1966;49.908;9.156;2022-12-18T22:19:20;28.80;;;14.17;;
3901;SDS011;1966;49.908;9.156;2022-12-18T22:24:39;35.03;;;15.07;;
3901;SDS011;1966;49.908;9.156;2022-12-18T22:29:59;32.50;;;14.63;;
3901;SDS011;1966;49.908;9.156;2022-12-18T22:35:26;26.33;;;13.37;;
3901;SDS011;1966;49.908;9.156;2022-12-18T22:40:46;30.43;;;14.13;;
3901;SDS011;1966;49.908;9.156;2022-12-18T22:46:07;33.27;;;15.37;;
3901;SDS011;1966;49.908;9.156;2022-12-18T22:51:29;31.93;;;14.90;;
3901;SDS011;1966;49.908;9.156;2022-12-18T22:56:49;34.53;;;15.87;;
3901;SDS011;1966;49.908;9.156;2022-12-18T23:02:09;33.73;;;14.67;;
3901;SDS011;1966;49.908;9.156;2022-12-18T23:07:30;33.10;;;14.37;;
3901;SDS011;1966;49.908;9.156;2022-12-18T23:12:49;30.90;;;14.87;;
3901;SDS011;1966;49.908;9.156;2022-12-18T23:18:09;29.30;;;15.03;;
3901;SDS011;1966;49.908;9.156;2022-12-18T23:23:30;26.90;;;14.53;;
3901;SDS011;1966;49.908;9.156;2022-12-18T23:28:51;30.87;;;15.33;;
3901;SDS011;1966;49.908;9.156;2022-12-18T23:34:13;30.23;;;16.20;;
3901;SDS011;1966;49.908;9.156;2022-12-18T23:39:34;31.17;;;14.13;;
3901;SDS011;1966;49.908;9.156;2022-12-18T23:44:53;30.97;;;14.73;;
3901;SDS011;1966;49.908;9.156;2022-12-18T23:50:13;32.97;;;14.37;;
3901;SDS011;1966;49.908;9.156;2022-12-18T23:55:37;30.23;;;14.47;;
